Time;durP1;ratioP1;P1;durP2;ratioP2;P2;SDS_P1;SDS_P2;PMS_P1;PMS_P2;Temp;Humidity;BMP_temperature;BMP_pressure;BME280_temperature;BME280_humidity;BME280_pressure;Samples;Min_cycle;Max_cycle;Signal;HPM_P1;HPM_P2
2021/07/04 00:00:36;;;;;;;8.82;5.10;;;;;;;16.60;71.65;98787.16;5153870;27;20047;-67
2021/07/04 00:03:03;;;;;;;8.10;5.05;;;;;;;16.67;71.53;98792.13;5154037;27;20035;-68
2021/07/04 00:05:34;;;;;;;6.50;5.25;;;;;;;16.67;71.63;98792.13;5135177;27;20039;-67
2021/07/04 00:08:00;;;;;;;7.03;5.45;;;;;;;16.70;71.55;98789.66;5135373;27;20039;-66
2021/07/04 00:10:29;;;;;;;9.20;6.00;;;;;;;16.70;71.39;98797.69;5135044;27;20095;-68
2021/07/04 00:12:56;;;;;;;8.23;5.35;;;;;;;16.71;71.32;98793.16;5153530;27;20066;-67
2021/07/04 00:15:24;;;;;;;7.05;5.25;;;;;;;16.74;71.25;98795.25;5153853;27;20100;-68
2021/07/04 00:17:50;;;;;;;7.03;5.22;;;;;;;16.70;71.22;98797.69;5153334;27;20099;-67
2021/07/04 00:20:18;;;;;;;8.38;5.50;;;;;;;16.71;71.11;98799.28;5153660;27;20053;-68
2021/07/04 00:22:44;;;;;;;9.10;5.10;;;;;;;16.71;70.96;98795.84;5153319;27;20070;-68
2021/07/04 00:25:13;;;;;;;8.25;4.85;;;;;;;16.70;71.14;98803.03;5153820;27;20095;-68
2021/07/04 00:27:38;;;;;;;6.35;4.40;;;;;;;16.67;71.17;98800.94;5153321;27;20083;-67
2021/07/04 00:30:10;;;;;;;6.15;4.78;;;;;;;16.65;70.79;98800.47;5153683;27;20039;-67
2021/07/04 00:32:36;;;;;;;8.45;4.95;;;;;;;16.68;71.19;98799.09;5153509;27;20503;-67
2021/07/04 00:35:03;;;;;;;5.82;4.65;;;;;;;16.68;71.07;98807.13;5153657;27;20122;-67
2021/07/04 00:37:30;;;;;;;6.65;5.13;;;;;;;16.63;71.12;98791.94;5135066;27;20046;-68
2021/07/04 00:40:07;;;;;;;6.47;5.38;;;;;;;16.63;71.35;98801.84;5136241;27;20114;-67
2021/07/04 00:42:33;;;;;;;10.50;5.43;;;;;;;16.64;71.20;98796.19;5135009;27;20070;-67
2021/07/04 00:44:59;;;;;;;10.32;4.97;;;;;;;16.61;71.16;98798.66;5134324;27;20417;-68
2021/07/04 00:47:26;;;;;;;9.98;4.93;;;;;;;16.63;71.20;98797.28;5153191;27;20095;-68
2021/07/04 00:49:52;;;;;;;7.20;5.45;;;;;;;16.64;71.47;98796.19;5134079;27;20035;-67
2021/07/04 00:52:18;;;;;;;7.43;4.82;;;;;;;16.62;71.12;98800.22;5152810;27;20074;-68
2021/07/04 00:54:44;;;;;;;9.23;5.15;;;;;;;16.64;71.34;98806.88;5134092;27;20090;-67
2021/07/04 00:57:10;;;;;;;5.15;4.38;;;;;;;16.66;70.97;98811.97;5153036;27;20046;-69
2021/07/04 00:59:36;;;;;;;7.43;4.57;;;;;;;16.63;70.82;98807.97;5152721;27;20043;-67
2021/07/04 01:02:02;;;;;;;5.95;4.32;;;;;;;16.62;70.83;98801.06;5152919;27;20608;-68
2021/07/04 01:04:30;;;;;;;7.22;4.70;;;;;;;16.64;70.74;98803.41;5133848;27;20415;-67
2021/07/04 01:06:58;;;;;;;9.80;4.22;;;;;;;16.58;70.80;98795.47;5152069;27;20086;-68
2021/07/04 01:09:25;;;;;;;7.20;4.85;;;;;;;16.60;71.04;98811.25;5134024;27;20420;-67
2021/07/04 01:11:51;;;;;;;5.03;4.20;;;;;;;16.58;71.26;98813.41;5134275;27;20525;-67
2021/07/04 01:14:17;;;;;;;9.45;4.63;;;;;;;16.56;71.25;98802.22;5135045;27;20125;-67
2021/07/04 01:16:44;;;;;;;5.10;4.35;;;;;;;16.54;71.40;98805.16;5153772;27;20388;-68
2021/07/04 01:19:15;;;;;;;8.57;5.03;;;;;;;16.51;71.47;98800.41;5134898;27;20046;-67
2021/07/04 01:21:41;;;;;;;;;;;;;;;16.51;71.53;98808.44;5153939;27;20035;-66
2021/07/04 01:24:08;;;;;;;5.03;4.43;;;;;;;16.50;71.46;98814.88;5117830;27;20383;-67
2021/07/04 01:26:34;;;;;;;7.97;4.80;;;;;;;16.47;71.89;98810.09;5153553;27;20070;-68
2021/07/04 01:28:59;;;;;;;5.15;3.97;;;;;;;16.47;71.96;98810.09;5153142;27;20458;-66
2021/07/04 01:31:27;;;;;;;6.10;3.88;;;;;;;16.46;71.89;98815.72;5134860;27;20038;-67
2021/07/04 01:33:59;;;;;;;6.25;4.13;;;;;;;16.43;72.34;98813.63;5118508;27;20495;-68
2021/07/04 01:36:31;;;;;;;5.75;4.30;;;;;;;16.44;72.46;98816.03;5135143;27;20450;-67
2021/07/04 01:38:57;;;;;;;7.45;4.95;;;;;;;16.48;72.58;98808.22;5153074;27;20043;-67
2021/07/04 01:41:23;;;;;;;5.25;3.67;;;;;;;16.48;72.52;98817.03;5134706;27;20137;-68
2021/07/04 01:43:51;;;;;;;5.68;4.13;;;;;;;16.51;72.54;98816.44;5134536;27;20047;-67
2021/07/04 01:46:21;;;;;;;6.32;4.38;;;;;;;16.47;72.67;98818.13;5153101;27;20111;-67
2021/07/04 01:48:47;;;;;;;6.45;4.35;;;;;;;16.46;72.66;98815.72;5134474;27;20073;-67
2021/07/04 01:51:18;;;;;;;6.28;3.92;;;;;;;16.49;72.44;98807.13;5134814;27;20039;-67
2021/07/04 01:53:44;;;;;;;6.85;3.92;;;;;;;16.49;72.61;98815.16;5153010;27;20065;-67
2021/07/04 01:56:17;;;;;;;5.95;4.28;;;;;;;16.52;72.50;98817.25;5118703;27;20046;-67
2021/07/04 01:58:48;;;;;;;5.80;4.18;;;;;;;16.52;72.50;98812.69;5135269;27;20035;-67
2021/07/04 02:01:23;;;;;;;6.57;4.45;;;;;;;16.53;72.43;98803.59;5153227;27;20074;-67
2021/07/04 02:03:49;;;;;;;7.70;4.28;;;;;;;16.53;72.40;98808.94;5134341;27;20110;-67
2021/07/04 02:06:18;;;;;;;5.65;3.97;;;;;;;16.52;72.73;98809.22;5134556;27;20054;-67
2021/07/04 02:08:47;;;;;;;7.00;4.30;;;;;;;16.52;72.76;98819.91;5134216;27;20053;-68
2021/07/04 02:11:13;;;;;;;6.68;4.20;;;;;;;16.51;72.70;98826.34;5134595;27;20510;-68
2021/07/04 02:13:43;;;;;;;8.07;4.07;;;;;;;16.51;72.69;98831.72;5134301;27;20491;-67
2021/07/04 02:16:17;;;;;;;5.43;3.97;;;;;;;16.51;72.89;98829.03;5134558;27;20468;-67
2021/07/04 02:18:55;;;;;;;8.80;4.25;;;;;;;16.52;73.05;98833.28;5136005;27;20504;-67
2021/07/04 02:21:34;;;;;;;6.45;4.15;;;;;;;16.53;72.93;98825.00;5157318;27;20051;-67
2021/07/04 02:24:18;;;;;;;4.22;3.83;;;;;;;16.56;72.40;98837.78;5157200;27;20106;-67
2021/07/04 02:27:06;;;;;;;7.72;4.20;;;;;;;16.57;72.41;98836.69;5156232;27;20131;-67
2021/07/04 02:29:47;;;;;;;5.60;3.83;;;;;;;16.63;72.46;98839.31;5138375;27;20125;-68
2021/07/04 02:32:16;;;;;;;4.85;3.88;;;;;;;16.65;72.29;98843.28;5138247;27;20404;-67
2021/07/04 02:34:42;;;;;;;7.45;3.83;;;;;;;16.65;72.26;98839.78;5138015;27;20049;-68
2021/07/04 02:37:08;;;;;;;10.77;4.60;;;;;;;16.70;72.30;98847.75;5138158;27;20042;-67
2021/07/04 02:39:45;;;;;;;6.72;3.75;;;;;;;16.68;72.21;98842.69;5138115;27;20050;-66
2021/07/04 02:42:13;;;;;;;4.20;3.60;;;;;;;16.64;72.19;98836.31;5138541;27;20034;-68
2021/07/04 02:44:39;;;;;;;5.72;4.05;;;;;;;16.66;72.39;98849.41;5137762;27;20096;-67
2021/07/04 02:47:07;;;;;;;4.28;3.53;;;;;;;16.67;72.59;98848.31;5156672;27;20046;-67
2021/07/04 02:49:34;;;;;;;4.85;3.97;;;;;;;16.65;72.92;98851.31;5137895;27;20142;-67
2021/07/04 02:52:03;;;;;;;5.45;3.80;;;;;;;16.68;72.56;98852.63;5156467;27;20583;-67
2021/07/04 02:54:29;;;;;;;8.25;4.03;;;;;;;16.68;72.71;98856.06;5156598;27;20133;-67
2021/07/04 02:57:08;;;;;;;4.97;3.75;;;;;;;16.66;72.55;98847.53;5156695;27;20034;-67
2021/07/04 02:59:38;;;;;;;5.47;3.90;;;;;;;16.68;72.57;98848.06;5137677;27;20053;-67
2021/07/04 03:02:06;;;;;;;8.55;3.88;;;;;;;16.67;72.75;98849.13;5137638;27;20043;-67
2021/07/04 03:04:32;;;;;;;4.95;3.92;;;;;;;16.72;72.64;98845.59;5156119;27;20487;-67
2021/07/04 03:07:01;;;;;;;6.90;3.47;;;;;;;16.73;72.57;98857.88;5137490;27;20389;-66
2021/07/04 03:09:27;;;;;;;6.13;4.22;;;;;;;16.72;72.53;98862.44;5137435;27;20107;-67
2021/07/04 03:11:56;;;;;;;8.32;3.70;;;;;;;16.69;72.68;98865.69;5137474;27;20043;-67
2021/07/04 03:14:22;;;;;;;5.55;4.18;;;;;;;16.69;72.86;98854.97;5156136;27;20042;-67
2021/07/04 03:16:48;;;;;;;6.60;3.60;;;;;;;16.69;72.95;98856.88;5156210;27;20416;-67
2021/07/04 03:19:15;;;;;;;4.93;4.45;;;;;;;16.73;72.77;98850.63;5137606;27;20042;-67
2021/07/04 03:21:41;;;;;;;5.15;3.78;;;;;;;16.76;72.75;98851.97;5137051;27;20042;-67
2021/07/04 03:24:10;;;;;;;5.95;4.15;;;;;;;16.80;72.73;98858.34;5155930;27;20038;-67
2021/07/04 03:26:37;;;;;;;8.68;4.40;;;;;;;16.76;73.01;98854.63;5137064;27;20171;-68
2021/07/04 03:29:04;;;;;;;6.40;4.15;;;;;;;16.82;72.97;98860.72;5137207;27;20039;-67
2021/07/04 03:31:39;;;;;;;6.18;3.80;;;;;;;16.84;72.89;98861.22;5154799;27;20149;-67
2021/07/04 03:34:06;;;;;;;4.85;3.50;;;;;;;16.90;72.91;98860.84;5137010;27;20043;-67
2021/07/04 03:36:34;;;;;;;4.43;3.30;;;;;;;16.94;72.71;98869.09;5137072;27;20487;-67
2021/07/04 03:39:03;;;;;;;5.45;3.53;;;;;;;16.98;72.64;98868.22;5136861;27;20043;-68
2021/07/04 03:41:29;;;;;;;8.48;4.15;;;;;;;16.91;72.62;98862.47;5136977;27;20065;-68
2021/07/04 03:43:59;;;;;;;5.13;3.50;;;;;;;17.01;72.41;98881.03;5137266;27;20084;-68
2021/07/04 03:46:28;;;;;;;4.28;3.70;;;;;;;17.05;72.53;98877.75;5133296;27;20143;-67
2021/07/04 03:48:55;;;;;;;4.40;3.60;;;;;;;17.07;72.42;98876.38;5116264;27;20043;-67
2021/07/04 03:51:30;;;;;;;5.07;3.63;;;;;;;17.12;72.51;98880.84;5133372;27;20059;-67
2021/07/04 03:54:00;;;;;;;3.55;3.22;;;;;;;17.10;72.48;98878.47;5133521;27;20054;-67
2021/07/04 03:56:26;;;;;;;3.70;3.20;;;;;;;17.11;72.59;98881.94;5133264;27;20540;-67
2021/07/04 03:58:55;;;;;;;5.30;3.60;;;;;;;17.12;72.45;98878.16;5115769;27;20134;-67
2021/07/04 04:01:23;;;;;;;5.53;4.00;;;;;;;17.21;72.23;98881.81;5132830;27;20313;-66
2021/07/04 04:03:51;;;;;;;5.45;3.38;;;;;;;17.19;72.55;98886.66;5132743;27;20054;-66
2021/07/04 04:06:18;;;;;;;6.32;3.58;;;;;;;17.24;72.29;98897.28;5132783;27;20054;-67
2021/07/04 04:08:48;;;;;;;7.45;3.60;;;;;;;17.29;71.88;98899.84;5132893;27;20054;-66
2021/07/04 04:11:22;;;;;;;5.03;3.25;;;;;;;17.29;72.17;98889.13;5132920;27;20086;-66
2021/07/04 04:13:58;;;;;;;6.00;3.38;;;;;;;17.30;72.36;98898.00;5132820;27;20039;-66
2021/07/04 04:16:23;;;;;;;4.15;3.33;;;;;;;17.29;72.16;98907.88;5132822;27;20038;-66
2021/07/04 04:18:50;;;;;;;7.30;4.43;;;;;;;17.36;72.17;98908.31;5132356;27;20051;-65
2021/07/04 04:21:17;;;;;;;4.80;2.90;;;;;;;17.31;72.03;98902.25;5131971;27;20066;-65
2021/07/04 04:23:50;;;;;;;4.82;2.78;;;;;;;17.32;71.38;98904.63;5131096;27;20134;-64
2021/07/04 04:26:21;;;;;;;3.50;2.40;;;;;;;17.28;71.83;98903.63;5131240;27;20139;-66
2021/07/04 04:28:47;;;;;;;6.35;2.78;;;;;;;17.25;71.86;98906.91;5131698;27;20508;-66
2021/07/04 04:31:13;;;;;;;4.13;2.70;;;;;;;17.25;72.02;98907.69;5134120;27;20043;-65
2021/07/04 04:33:40;;;;;;;3.13;2.47;;;;;;;17.28;71.99;98916.22;5132354;27;20062;-66
2021/07/04 04:36:05;;;;;;;2.80;2.40;;;;;;;17.29;72.26;98920.50;5134051;27;20504;-66
2021/07/04 04:38:31;;;;;;;3.75;2.50;;;;;;;17.25;71.84;98920.28;5133597;27;20139;-69
2021/07/04 04:40:57;;;;;;;2.88;2.67;;;;;;;17.20;72.40;98926.50;5133315;27;20065;-65
2021/07/04 04:43:23;;;;;;;3.90;2.70;;;;;;;17.22;72.44;98920.88;5132190;27;20043;-71
2021/07/04 04:45:49;;;;;;;3.67;2.90;;;;;;;17.19;72.51;98919.56;5148506;27;20050;-74
2021/07/04 04:48:15;;;;;;;9.27;2.72;;;;;;;17.19;72.52;98937.53;5135551;27;20042;-69
2021/07/04 04:50:41;;;;;;;3.38;2.67;;;;;;;17.12;72.37;98929.06;5135598;27;20051;-69
2021/07/04 04:53:07;;;;;;;3.72;2.60;;;;;;;17.06;72.90;98932.91;5153944;27;20043;-69
2021/07/04 04:55:32;;;;;;;4.82;3.10;;;;;;;17.11;72.73;98946.22;5154265;27;20053;-69
2021/07/04 04:57:58;;;;;;;4.80;2.63;;;;;;;17.13;72.57;98946.72;5153881;27;20050;-69
2021/07/04 05:00:24;;;;;;;2.97;2.65;;;;;;;17.06;72.90;98925.69;5153805;27;20091;-69
2021/07/04 05:02:50;;;;;;;4.70;2.83;;;;;;;17.05;73.19;98937.47;5153860;27;20406;-68
2021/07/04 05:05:19;;;;;;;4.90;2.73;;;;;;;17.03;73.17;98942.34;5114238;27;20045;-68
2021/07/04 05:07:45;;;;;;;4.03;2.75;;;;;;;17.03;73.38;98934.28;5106018;27;20504;-68
2021/07/04 05:10:12;;;;;;;4.32;2.70;;;;;;;17.03;73.18;98934.28;5114183;27;20086;-67
2021/07/04 05:12:38;;;;;;;3.67;2.90;;;;;;;17.08;73.06;98930.72;5113774;27;20039;-67
2021/07/04 05:15:04;;;;;;;4.75;2.75;;;;;;;17.09;73.14;98935.81;5096138;27;20499;-69
2021/07/04 05:17:30;;;;;;;4.55;2.70;;;;;;;17.10;73.36;98940.06;5132053;27;20073;-69
2021/07/04 05:19:56;;;;;;;5.22;2.78;;;;;;;17.17;73.27;98942.38;5132399;27;20043;-68
2021/07/04 05:22:22;;;;;;;4.07;3.10;;;;;;;17.20;73.26;98933.75;5131397;27;20050;-69
2021/07/04 05:24:48;;;;;;;3.17;2.67;;;;;;;17.24;73.08;98940.94;5095827;27;20496;-68
2021/07/04 05:27:13;;;;;;;4.30;2.72;;;;;;;17.29;72.72;98949.97;5097045;27;20146;-68
2021/07/04 05:29:39;;;;;;;7.05;2.85;;;;;;;17.28;72.90;98941.13;5132484;27;20416;-66
2021/07/04 05:32:05;;;;;;;2.72;2.50;;;;;;;17.31;72.46;98942.44;5132649;27;20073;-63
2021/07/04 05:34:31;;;;;;;3.47;2.22;;;;;;;17.27;71.93;98954.84;5132439;27;20050;-64
2021/07/04 05:36:57;;;;;;;4.57;2.78;;;;;;;17.25;72.57;98937.16;5132597;27;20039;-66
2021/07/04 05:39:26;;;;;;;4.57;2.38;;;;;;;17.30;72.36;98938.97;5114016;27;20051;-66
2021/07/04 05:41:52;;;;;;;2.80;2.20;;;;;;;17.36;72.29;98943.16;5132423;27;20130;-65
2021/07/04 05:44:18;;;;;;;3.35;2.78;;;;;;;17.39;72.26;98934.53;5132221;27;20039;-66
2021/07/04 05:46:44;;;;;;;7.57;3.20;;;;;;;17.48;71.73;98948.84;5132418;27;20141;-66
2021/07/04 05:49:10;;;;;;;3.90;2.40;;;;;;;17.51;71.49;98944.78;5132149;27;20095;-69
2021/07/04 05:51:36;;;;;;;8.68;2.60;;;;;;;17.54;71.47;98949.56;5096908;27;20037;-71
2021/07/04 05:54:02;;;;;;;2.95;2.60;;;;;;;17.65;71.28;98948.28;5088141;27;20121;-70
2021/07/04 05:56:27;;;;;;;3.60;2.67;;;;;;;17.73;70.77;98946.81;5152670;27;20107;-69
2021/07/04 05:58:53;;;;;;;3.03;2.42;;;;;;;17.81;70.11;98948.06;5134112;27;20046;-66
2021/07/04 06:01:19;;;;;;;2.80;2.53;;;;;;;17.88;69.58;98951.94;5152998;27;20038;-71
2021/07/04 06:03:45;;;;;;;3.63;2.42;;;;;;;17.96;69.73;98941.63;5152856;27;20528;-71
2021/07/04 06:06:11;;;;;;;3.70;2.50;;;;;;;18.09;69.30;98951.56;5134235;27;20133;-64
2021/07/04 06:08:37;;;;;;;3.95;2.40;;;;;;;18.28;68.69;98951.47;5152259;27;20039;-71
2021/07/04 06:11:03;;;;;;;4.60;2.60;;;;;;;18.36;68.21;98958.81;5153277;27;20050;-69
2021/07/04 06:13:28;;;;;;;4.63;2.22;;;;;;;18.39;67.65;98959.00;5152743;27;20030;-71
2021/07/04 06:15:55;;;;;;;4.80;2.90;;;;;;;18.32;68.04;98960.50;5152615;27;20065;-72
2021/07/04 06:18:21;;;;;;;3.85;2.47;;;;;;;18.32;68.61;98963.19;5099907;27;20503;-71
2021/07/04 06:20:47;;;;;;;3.50;2.35;;;;;;;18.40;68.22;98965.16;5152802;27;20057;-70
2021/07/04 06:23:13;;;;;;;2.60;2.25;;;;;;;18.50;67.58;98961.47;5152760;27;20038;-71
2021/07/04 06:25:38;;;;;;;3.33;2.38;;;;;;;18.56;66.90;98966.47;5153080;27;20074;-69
2021/07/04 06:28:04;;;;;;;2.50;2.30;;;;;;;18.67;66.38;98966.22;5152666;27;20082;-70
2021/07/04 06:30:30;;;;;;;2.92;2.10;;;;;;;18.82;65.11;98964.06;5152693;27;20051;-74
2021/07/04 06:32:56;;;;;;;2.42;1.98;;;;;;;18.80;65.45;98963.56;5134556;27;20138;-72
2021/07/04 06:35:22;;;;;;;3.55;2.40;;;;;;;18.91;65.50;98955.28;5134145;27;20141;-71
2021/07/04 06:37:48;;;;;;;3.83;2.50;;;;;;;19.17;64.77;98960.88;5152657;27;20054;-68
2021/07/04 06:40:14;;;;;;;4.13;2.10;;;;;;;19.32;63.55;98957.03;5153626;27;20039;-69
2021/07/04 06:42:40;;;;;;;5.13;2.08;;;;;;;19.42;62.53;98959.47;5152744;27;20031;-68
2021/07/04 06:45:09;;;;;;;3.10;2.17;;;;;;;19.53;62.38;98960.81;5152368;27;20087;-67
2021/07/04 06:47:47;;;;;;;2.83;1.77;;;;;;;19.60;61.63;98957.69;5134101;27;20049;-66
2021/07/04 06:50:15;;;;;;;5.25;1.90;;;;;;;19.67;61.60;98956.16;5152394;27;20141;-65
2021/07/04 06:52:41;;;;;;;2.85;1.92;;;;;;;19.47;61.75;98957.47;5116686;27;20465;-65
2021/07/04 06:55:07;;;;;;;3.92;1.77;;;;;;;19.34;63.11;98968.25;5152662;27;20503;-66
2021/07/04 06:57:34;;;;;;;2.42;2.05;;;;;;;19.22;64.19;98964.22;5134089;27;20035;-61
2021/07/04 07:00:20;;;;;;;3.03;1.85;;;;;;;19.17;64.03;98961.66;5152597;27;20503;-66
2021/07/04 07:02:46;;;;;;;3.83;2.33;;;;;;;19.08;64.01;98963.47;5152670;27;20487;-65
2021/07/04 07:05:14;;;;;;;2.97;1.90;;;;;;;19.07;64.64;98967.28;5147380;27;20042;-66
2021/07/04 07:07:41;;;;;;;2.88;1.88;;;;;;;19.11;64.14;98962.88;5155419;27;20526;-65
2021/07/04 07:10:09;;;;;;;3.45;2.10;;;;;;;19.14;64.12;98964.16;5155670;27;20042;-66
2021/07/04 07:12:36;;;;;;;3.05;2.08;;;;;;;19.28;63.85;98967.59;5137467;27;20035;-66
2021/07/04 07:15:02;;;;;;;2.80;1.80;;;;;;;19.41;62.76;98958.69;5155453;27;20050;-65
2021/07/04 07:17:29;;;;;;;4.38;2.03;;;;;;;19.53;62.78;98950.06;5155757;27;20436;-66
2021/07/04 07:19:59;;;;;;;;;;;;;;;19.86;61.12;98952.50;5136713;27;20038;-68
2021/07/04 07:22:24;;;;;;;3.28;1.75;;;;;;;20.25;59.77;98946.31;5155834;27;20304;-66
2021/07/04 07:24:50;;;;;;;2.42;1.70;;;;;;;20.28;58.74;98952.97;5155272;27;20141;-66
2021/07/04 07:27:19;;;;;;;4.03;1.50;;;;;;;20.23;58.02;98959.28;5120127;27;20176;-66
2021/07/04 07:29:45;;;;;;;1.60;1.38;;;;;;;20.14;58.34;98959.25;5155500;27;20147;-67
2021/07/04 07:32:11;;;;;;;1.27;1.17;;;;;;;20.25;57.62;98954.38;5155849;27;20441;-70
2021/07/04 07:34:37;;;;;;;2.10;1.30;;;;;;;20.26;57.39;98952.47;5154463;27;20441;-65
2021/07/04 07:37:04;;;;;;;1.40;1.30;;;;;;;20.25;56.74;98959.75;5088157;27;20052;-66
2021/07/04 07:39:32;;;;;;;1.25;1.13;;;;;;;20.14;57.46;98961.94;5136887;27;20046;-67
2021/07/04 07:41:58;;;;;;;5.55;3.38;;;;;;;20.10;58.76;98968.25;5154949;27;20517;-68
2021/07/04 07:44:24;;;;;;;1.70;1.60;;;;;;;19.96;59.03;98965.66;5154961;27;20050;-69
2021/07/04 07:47:00;;;;;;;2.30;1.75;;;;;;;19.94;59.71;98967.84;5136545;27;20050;-69
2021/07/04 07:49:25;;;;;;;2.45;1.48;;;;;;;19.99;59.55;98958.88;5154362;27;20288;-66
2021/07/04 07:51:52;;;;;;;1.70;1.60;;;;;;;19.87;59.70;98957.53;5154892;27;20043;-68
2021/07/04 07:54:27;;;;;;;1.98;1.60;;;;;;;19.91;59.39;98950.47;5136308;27;20051;-66
2021/07/04 07:56:53;;;;;;;2.45;1.70;;;;;;;19.95;59.27;98954.09;5154899;27;20035;-67
2021/07/04 07:59:20;;;;;;;2.97;1.70;;;;;;;19.91;59.03;98955.03;5154637;27;20095;-66
2021/07/04 08:01:46;;;;;;;3.65;1.70;;;;;;;19.84;59.24;98954.69;5154896;27;20031;-67
2021/07/04 08:04:12;;;;;;;3.22;1.60;;;;;;;19.83;59.46;98947.72;5154527;27;20073;-68
2021/07/04 08:06:38;;;;;;;1.90;1.70;;;;;;;19.85;59.82;98946.28;5154729;27;20075;-67
2021/07/04 08:09:07;;;;;;;3.05;1.90;;;;;;;20.10;58.92;98954.81;5135969;27;20042;-67
2021/07/04 08:11:45;;;;;;;2.45;1.58;;;;;;;20.11;58.30;98956.38;5136149;27;20053;-65
2021/07/04 08:14:11;;;;;;;4.47;1.70;;;;;;;20.16;58.22;98940.91;5154669;27;20035;-64
2021/07/04 08:16:43;;;;;;;2.80;1.80;;;;;;;20.36;57.78;98947.59;5135252;27;20042;-65
2021/07/04 08:19:09;;;;;;;2.78;1.73;;;;;;;20.52;57.36;98937.22;5135436;27;20146;-67
2021/07/04 08:21:35;;;;;;;2.75;1.60;;;;;;;20.71;56.96;98944.22;5154384;27;20046;-69
2021/07/04 08:24:00;;;;;;;3.25;1.92;;;;;;;20.83;56.34;98944.41;5154363;27;20121;-66
2021/07/04 08:26:26;;;;;;;3.67;1.90;;;;;;;20.87;56.50;98934.56;5153906;27;20042;-68
2021/07/04 08:28:52;;;;;;;2.45;1.67;;;;;;;20.81;56.44;98942.00;5154465;27;20433;-65
2021/07/04 08:31:18;;;;;;;2.35;1.80;;;;;;;20.84;56.83;98940.59;5154760;27;20043;-65
2021/07/04 08:33:44;;;;;;;2.38;1.60;;;;;;;20.88;56.14;98952.31;5154212;27;20125;-69
2021/07/04 08:36:09;;;;;;;2.13;1.50;;;;;;;20.99;56.92;98942.81;5154659;27;20046;-68
2021/07/04 08:38:35;;;;;;;2.72;1.88;;;;;;;21.27;56.20;98951.38;5135863;27;20039;-70
2021/07/04 08:41:03;;;;;;;1.95;1.52;;;;;;;21.39;55.54;98947.28;5154365;27;20271;-69
2021/07/04 08:43:36;;;;;;;3.03;1.90;;;;;;;21.68;54.46;98943.88;5135319;27;20511;-70
2021/07/04 08:46:04;;;;;;;1.77;1.48;;;;;;;21.65;53.90;98948.00;5153814;27;20062;-68
2021/07/04 08:48:32;;;;;;;2.42;1.70;;;;;;;21.63;55.14;98957.53;5154118;27;20420;-69
2021/07/04 08:50:58;;;;;;;5.18;1.88;;;;;;;21.50;55.86;98951.19;5153889;27;20136;-69
2021/07/04 08:53:24;;;;;;;2.00;1.80;;;;;;;21.45;56.23;98960.25;5135542;27;20046;-70
2021/07/04 08:55:50;;;;;;;1.90;1.77;;;;;;;21.49;55.75;98955.78;5154320;27;20072;-70
2021/07/04 08:58:22;;;;;;;3.05;2.25;;;;;;;21.25;56.38;98947.41;5154087;27;20053;-70
2021/07/04 09:01:07;;;;;;;2.42;2.00;;;;;;;21.18;56.79;98950.59;5135323;27;20043;-66
2021/07/04 09:03:33;;;;;;;2.00;1.83;;;;;;;21.25;56.56;98945.50;5154037;27;20046;-67
2021/07/04 09:05:59;;;;;;;4.03;2.28;;;;;;;21.15;57.37;98945.84;5153347;27;20055;-66
2021/07/04 09:08:24;;;;;;;2.50;2.30;;;;;;;21.12;57.19;98941.06;5153487;27;20039;-69
2021/07/04 09:11:16;;;;;;;4.60;2.22;;;;;;;21.10;57.46;98951.38;5135095;27;20046;-69
2021/07/04 09:13:46;;;;;;;3.47;2.20;;;;;;;21.16;57.25;98950.09;5153604;27;20038;-69
2021/07/04 09:16:19;;;;;;;3.15;2.10;;;;;;;21.30;57.14;98947.25;5135340;27;20150;-70
2021/07/04 09:18:48;;;;;;;3.72;2.50;;;;;;;21.41;57.18;98953.13;5134926;27;20065;-69
2021/07/04 09:21:19;;;;;;;6.55;4.97;;;;;;;21.43;56.61;98945.50;5134654;27;20067;-70
2021/07/04 09:23:45;;;;;;;4.90;2.65;;;;;;;21.24;57.09;98943.13;5153530;27;20038;-69
2021/07/04 09:26:37;;;;;;;2.63;2.20;;;;;;;21.24;57.71;98945.81;5152819;27;20058;-70
2021/07/04 09:29:04;;;;;;;3.03;2.65;;;;;;;21.13;58.30;98941.88;5141680;27;20126;-69
2021/07/04 09:31:30;;;;;;;5.68;3.08;;;;;;;21.13;58.40;98941.88;5134750;27;20038;-66
2021/07/04 09:34:22;;;;;;;2.83;2.35;;;;;;;21.42;57.66;98946.63;5153173;27;20035;-66
2021/07/04 09:36:55;;;;;;;6.18;2.95;;;;;;;21.44;57.25;98947.91;5134667;27;20034;-64
2021/07/04 09:39:21;;;;;;;5.85;3.40;;;;;;;21.57;57.11;98948.81;5153458;27;20042;-65
2021/07/04 09:42:02;;;;;;;6.40;3.55;;;;;;;21.62;57.24;98951.34;5152969;27;20150;-65
2021/07/04 09:44:28;;;;;;;3.45;2.65;;;;;;;21.69;57.08;98945.44;5152895;27;20069;-65
2021/07/04 09:47:15;;;;;;;5.13;3.03;;;;;;;21.66;58.23;98954.19;5153068;27;20043;-64
2021/07/04 09:49:43;;;;;;;2.88;2.40;;;;;;;21.68;57.65;98949.28;5134557;27;20099;-65
2021/07/04 09:52:20;;;;;;;2.80;2.45;;;;;;;21.58;57.95;98938.81;5153044;27;20503;-71
2021/07/04 09:55:00;;;;;;;4.00;2.75;;;;;;;21.55;58.68;98945.63;5152836;27;20047;-67
2021/07/04 09:57:28;;;;;;;3.83;2.58;;;;;;;21.64;58.39;98937.53;5153027;27;20045;-68
2021/07/04 10:00:16;;;;;;;3.70;2.50;;;;;;;21.73;58.19;98946.38;5153071;27;20035;-70
2021/07/04 10:03:11;;;;;;;3.70;2.88;;;;;;;21.81;58.46;98920.50;5129716;27;20034;-71
2021/07/04 10:05:45;;;;;;;2.97;2.58;;;;;;;21.87;58.26;98930.00;5117014;27;20050;-66
2021/07/04 10:08:20;;;;;;;3.40;2.97;;;;;;;22.02;57.14;98925.97;5133974;27;20046;-67
2021/07/04 10:10:46;;;;;;;2.97;2.58;;;;;;;22.35;57.05;98926.16;5152605;27;20511;-72
2021/07/04 10:13:12;;;;;;;2.88;2.60;;;;;;;22.32;56.21;98926.81;5152468;27;20043;-67
2021/07/04 10:15:42;;;;;;;2.65;2.45;;;;;;;22.40;56.35;98942.94;5153061;27;20051;-66
2021/07/04 10:18:12;;;;;;;2.53;2.33;;;;;;;22.39;56.38;98937.91;5153009;27;20038;-68
2021/07/04 10:20:39;;;;;;;4.70;2.90;;;;;;;22.22;56.83;98939.56;5153151;27;20420;-69
2021/07/04 10:23:10;;;;;;;4.50;2.60;;;;;;;22.04;57.42;98940.72;5152722;27;20035;-67
2021/07/04 10:25:36;;;;;;;3.08;2.78;;;;;;;21.79;57.85;98955.88;5152961;27;20035;-67
2021/07/04 10:28:03;;;;;;;6.57;3.30;;;;;;;21.74;58.71;98948.78;5134400;27;20389;-67
2021/07/04 10:30:30;;;;;;;4.40;2.85;;;;;;;21.62;58.87;98937.03;5117377;27;20097;-67
2021/07/04 10:33:15;;;;;;;4.57;3.08;;;;;;;21.63;58.72;98941.34;5134515;27;20038;-67
2021/07/04 10:36:00;;;;;;;5.70;3.28;;;;;;;21.69;58.49;98943.53;5152979;27;20046;-68
2021/07/04 10:38:26;;;;;;;4.25;2.50;;;;;;;21.69;58.80;98954.34;5152689;27;20042;-67
2021/07/04 10:41:05;;;;;;;3.03;2.50;;;;;;;21.82;58.59;98952.53;5155701;27;20043;-66
2021/07/04 10:44:12;;;;;;;5.03;2.88;;;;;;;21.99;58.62;98954.41;5156857;27;20043;-67
2021/07/04 10:46:44;;;;;;;3.17;2.88;;;;;;;21.97;58.79;98956.63;5156621;27;20043;-67
2021/07/04 10:49:24;;;;;;;4.65;3.00;;;;;;;21.85;58.64;98948.41;5156508;27;20138;-67
2021/07/04 10:52:07;;;;;;;6.78;3.35;;;;;;;21.69;59.29;98957.03;5138294;27;20042;-67
2021/07/04 10:54:38;;;;;;;3.60;2.75;;;;;;;21.40;60.22;98957.72;5156478;27;20060;-65
2021/07/04 10:57:11;;;;;;;3.80;3.17;;;;;;;21.24;60.70;98953.91;5156511;27;20412;-65
2021/07/04 10:59:49;;;;;;;3.70;3.15;;;;;;;21.07;62.00;98954.72;5137935;27;20495;-67
2021/07/04 11:02:37;;;;;;;3.75;2.92;;;;;;;20.97;61.72;98966.59;5156628;27;20043;-68
2021/07/04 11:05:05;;;;;;;3.42;3.10;;;;;;;20.89;62.29;98970.06;5120479;27;20380;-66
2021/07/04 11:07:53;;;;;;;5.03;3.50;;;;;;;20.80;62.43;98966.59;5120820;27;20133;-66
2021/07/04 11:10:24;;;;;;;6.97;4.03;;;;;;;20.78;63.08;98960.72;5156071;27;20461;-66
2021/07/04 11:12:52;;;;;;;4.97;3.50;;;;;;;20.80;62.95;98964.69;5156222;27;20420;-68
2021/07/04 11:15:17;;;;;;;6.32;3.55;;;;;;;20.82;62.90;98970.56;5156273;27;20046;-66
2021/07/04 11:17:56;;;;;;;4.45;3.58;;;;;;;20.88;62.59;98957.69;5156159;27;20041;-64
2021/07/04 11:20:32;;;;;;;5.60;3.78;;;;;;;20.94;62.76;98952.94;5156144;27;20396;-64
2021/07/04 11:23:00;;;;;;;4.47;3.75;;;;;;;20.99;62.33;98958.19;5156118;27;20083;-64
2021/07/04 11:25:38;;;;;;;6.13;3.95;;;;;;;21.06;62.23;98961.19;5137417;27;20472;-68
2021/07/04 11:28:16;;;;;;;4.97;3.65;;;;;;;21.27;61.89;98956.75;5119977;27;20488;-65
2021/07/04 11:30:43;;;;;;;6.43;3.97;;;;;;;21.53;61.23;98953.25;5155943;27;20038;-69
2021/07/04 11:33:21;;;;;;;5.03;3.95;;;;;;;21.75;60.43;98954.94;5155752;27;20035;-67
2021/07/04 11:35:49;;;;;;;5.50;3.60;;;;;;;22.01;59.75;98954.88;5137253;27;20081;-66
2021/07/04 11:38:21;;;;;;;5.15;4.00;;;;;;;22.17;59.00;98944.34;5155872;27;20070;-67
2021/07/04 11:40:47;;;;;;;4.97;3.88;;;;;;;22.09;59.47;98939.75;5155888;27;20043;-63
2021/07/04 11:43:24;;;;;;;6.20;4.32;;;;;;;21.81;60.05;98945.56;5155479;27;20031;-64